sensor_id;sensor_type;location;lat;lon;timestamp;P1;durP1;ratioP1;P2;durP2;ratioP2
44981;SDS011;30716;41.740;-70.400;2023-01-08T00:01:04;0.20;;;0.20;;
44981;SDS011;30716;41.740;-70.400;2023-01-08T00:03:32;0.20;;;0.20;;
44981;SDS011;30716;41.740;-70.400;2023-01-08T00:06:00;0.45;;;0.30;;
44981;SDS011;30716;41.740;-70.400;2023-01-08T00:08:30;0.40;;;0.30;;
44981;SDS011;30716;41.740;-70.400;2023-01-08T00:10:57;0.82;;;0.35;;
44981;SDS011;30716;41.740;-70.400;2023-01-08T00:13:24;0.32;;;0.10;;
44981;SDS011;30716;41.740;-70.400;2023-01-08T00:15:51;0.95;;;0.45;;
44981;SDS011;30716;41.740;-70.400;2023-01-08T00:18:17;0.30;;;0.30;;
44981;SDS011;30716;41.740;-70.400;2023-01-08T00:20:44;0.30;;;0.20;;
44981;SDS011;30716;41.740;-70.400;2023-01-08T00:23:15;0.32;;;0.20;;
44981;SDS011;30716;41.740;-70.400;2023-01-08T00:25:43;0.37;;;0.23;;
44981;SDS011;30716;41.740;-70.400;2023-01-08T00:28:09;0.47;;;0.22;;
44981;SDS011;30716;41.740;-70.400;2023-01-08T00:30:36;0.73;;;0.50;;
44981;SDS011;30716;41.740;-70.400;2023-01-08T00:33:02;0.35;;;0.20;;
44981;SDS011;30716;41.740;-70.400;2023-01-08T00:35:29;0.38;;;0.30;;
44981;SDS011;30716;41.740;-70.400;2023-01-08T00:37:55;0.30;;;0.30;;
44981;SDS011;30716;41.740;-70.400;2023-01-08T00:40:21;0.65;;;0.30;;
44981;SDS011;30716;41.740;-70.400;2023-01-08T00:42:47;0.65;;;0.30;;
44981;SDS011;30716;41.740;-70.400;2023-01-08T00:45:14;0.57;;;0.43;;
44981;SDS011;30716;41.740;-70.400;2023-01-08T00:47:40;0.30;;;0.30;;
44981;SDS011;30716;41.740;-70.400;2023-01-08T00:50:06;0.20;;;0.20;;
44981;SDS011;30716;41.740;-70.400;2023-01-08T00:52:33;0.30;;;0.20;;
44981;SDS011;30716;41.740;-70.400;2023-01-08T00:54:59;0.40;;;0.28;;
44981;SDS011;30716;41.740;-70.400;2023-01-08T00:57:25;0.68;;;0.52;;
44981;SDS011;30716;41.740;-70.400;2023-01-08T00:59:56;1.42;;;0.40;;
44981;SDS011;30716;41.740;-70.400;2023-01-08T01:02:22;0.50;;;0.30;;
44981;SDS011;30716;41.740;-70.400;2023-01-08T01:04:48;0.55;;;0.40;;
44981;SDS011;30716;41.740;-70.400;2023-01-08T01:07:15;0.32;;;0.30;;
44981;SDS011;30716;41.740;-70.400;2023-01-08T01:09:41;0.35;;;0.25;;
44981;SDS011;30716;41.740;-70.400;2023-01-08T01:12:07;1.90;;;0.93;;
44981;SDS011;30716;41.740;-70.400;2023-01-08T01:14:33;0.45;;;0.30;;
44981;SDS011;30716;41.740;-70.400;2023-01-08T01:17:01;0.73;;;0.40;;
44981;SDS011;30716;41.740;-70.400;2023-01-08T01:19:27;0.40;;;0.35;;
44981;SDS011;30716;41.740;-70.400;2023-01-08T01:21:54;1.20;;;0.50;;
44981;SDS011;30716;41.740;-70.400;2023-01-08T01:24:20;0.32;;;0.30;;
44981;SDS011;30716;41.740;-70.400;2023-01-08T01:26:49;0.50;;;0.38;;
44981;SDS011;30716;41.740;-70.400;2023-01-08T01:29:16;0.80;;;0.30;;
44981;SDS011;30716;41.740;-70.400;2023-01-08T01:31:42;0.50;;;0.35;;
44981;SDS011;30716;41.740;-70.400;2023-01-08T01:34:09;0.50;;;0.40;;
44981;SDS011;30716;41.740;-70.400;2023-01-08T01:36:36;0.60;;;0.30;;
44981;SDS011;30716;41.740;-70.400;2023-01-08T01:39:02;0.68;;;0.47;;
44981;SDS011;30716;41.740;-70.400;2023-01-08T01:41:35;0.30;;;0.30;;
44981;SDS011;30716;41.740;-70.400;2023-01-08T01:47:02;1.30;;;0.40;;
44981;SDS011;30716;41.740;-70.400;2023-01-08T01:49:37;0.60;;;0.50;;
44981;SDS011;30716;41.740;-70.400;2023-01-08T01:52:06;0.30;;;0.30;;
44981;SDS011;30716;41.740;-70.400;2023-01-08T01:54:33;0.45;;;0.40;;
44981;SDS011;30716;41.740;-70.400;2023-01-08T01:57:01;0.93;;;0.35;;
44981;SDS011;30716;41.740;-70.400;2023-01-08T01:59:29;0.25;;;0.20;;
44981;SDS011;30716;41.740;-70.400;2023-01-08T02:01:55;0.38;;;0.30;;
44981;SDS011;30716;41.740;-70.400;2023-01-08T02:04:23;0.60;;;0.40;;
44981;SDS011;30716;41.740;-70.400;2023-01-08T02:07:10;0.60;;;0.30;;
44981;SDS011;30716;41.740;-70.400;2023-01-08T02:12:37;0.30;;;0.30;;
44981;SDS011;30716;41.740;-70.400;2023-01-08T02:15:14;1.58;;;0.47;;
44981;SDS011;30716;41.740;-70.400;2023-01-08T02:18:01;0.45;;;0.38;;
44981;SDS011;30716;41.740;-70.400;2023-01-08T02:20:35;1.48;;;0.50;;
44981;SDS011;30716;41.740;-70.400;2023-01-08T02:28:43;0.28;;;0.28;;
44981;SDS011;30716;41.740;-70.400;2023-01-08T02:31:17;0.68;;;0.40;;
44981;SDS011;30716;41.740;-70.400;2023-01-08T02:33:45;0.50;;;0.30;;
44981;SDS011;30716;41.740;-70.400;2023-01-08T02:38:38;0.77;;;0.40;;
44981;SDS011;30716;41.740;-70.400;2023-01-08T02:41:31;0.52;;;0.30;;
44981;SDS011;30716;41.740;-70.400;2023-01-08T02:44:23;0.88;;;0.47;;
44981;SDS011;30716;41.740;-70.400;2023-01-08T02:47:11;0.88;;;0.30;;
44981;SDS011;30716;41.740;-70.400;2023-01-08T02:49:44;0.65;;;0.35;;
44981;SDS011;30716;41.740;-70.400;2023-01-08T02:52:14;0.47;;;0.30;;
44981;SDS011;30716;41.740;-70.400;2023-01-08T02:54:42;0.30;;;0.30;;
44981;SDS011;30716;41.740;-70.400;2023-01-08T02:57:12;0.95;;;0.57;;
44981;SDS011;30716;41.740;-70.400;2023-01-08T02:59:41;1.30;;;0.40;;
44981;SDS011;30716;41.740;-70.400;2023-01-08T03:02:10;0.52;;;0.40;;
44981;SDS011;30716;41.740;-70.400;2023-01-08T03:04:39;0.80;;;0.40;;
44981;SDS011;30716;41.740;-70.400;2023-01-08T03:07:13;0.88;;;0.50;;
44981;SDS011;30716;41.740;-70.400;2023-01-08T03:09:39;1.23;;;0.45;;
44981;SDS011;30716;41.740;-70.400;2023-01-08T03:12:29;0.60;;;0.40;;
44981;SDS011;30716;41.740;-70.400;2023-01-08T03:15:12;2.08;;;0.43;;
44981;SDS011;30716;41.740;-70.400;2023-01-08T03:17:44;0.88;;;0.25;;
44981;SDS011;30716;41.740;-70.400;2023-01-08T03:20:14;0.70;;;0.38;;
44981;SDS011;30716;41.740;-70.400;2023-01-08T03:22:44;0.57;;;0.35;;
44981;SDS011;30716;41.740;-70.400;2023-01-08T03:25:14;1.50;;;0.60;;
44981;SDS011;30716;41.740;-70.400;2023-01-08T03:27:44;0.60;;;0.43;;
44981;SDS011;30716;41.740;-70.400;2023-01-08T03:30:15;0.30;;;0.30;;
44981;SDS011;30716;41.740;-70.400;2023-01-08T03:32:44;0.38;;;0.20;;
44981;SDS011;30716;41.740;-70.400;2023-01-08T03:35:13;0.55;;;0.32;;
44981;SDS011;30716;41.740;-70.400;2023-01-08T03:37:44;1.13;;;0.40;;
44981;SDS011;30716;41.740;-70.400;2023-01-08T03:40:16;1.05;;;0.38;;
44981;SDS011;30716;41.740;-70.400;2023-01-08T03:42:47;1.23;;;0.40;;
44981;SDS011;30716;41.740;-70.400;2023-01-08T03:45:13;0.57;;;0.30;;
44981;SDS011;30716;41.740;-70.400;2023-01-08T03:47:40;0.93;;;0.50;;
44981;SDS011;30716;41.740;-70.400;2023-01-08T03:50:08;1.13;;;0.30;;
44981;SDS011;30716;41.740;-70.400;2023-01-08T03:52:38;0.90;;;0.40;;
44981;SDS011;30716;41.740;-70.400;2023-01-08T03:55:05;0.40;;;0.30;;
44981;SDS011;30716;41.740;-70.400;2023-01-08T03:57:31;0.95;;;0.30;;
44981;SDS011;30716;41.740;-70.400;2023-01-08T03:59:57;0.75;;;0.40;;
44981;SDS011;30716;41.740;-70.400;2023-01-08T04:02:23;1.33;;;0.32;;
44981;SDS011;30716;41.740;-70.400;2023-01-08T04:04:50;0.73;;;0.40;;
44981;SDS011;30716;41.740;-70.400;2023-01-08T04:07:16;0.57;;;0.38;;
44981;SDS011;30716;41.740;-70.400;2023-01-08T04:09:42;0.85;;;0.50;;
44981;SDS011;30716;41.740;-70.400;2023-01-08T04:12:08;1.15;;;0.50;;
44981;SDS011;30716;41.740;-70.400;2023-01-08T04:14:35;0.40;;;0.32;;
44981;SDS011;30716;41.740;-70.400;2023-01-08T04:17:01;1.10;;;0.40;;
44981;SDS011;30716;41.740;-70.400;2023-01-08T04:19:27;0.68;;;0.35;;
44981;SDS011;30716;41.740;-70.400;2023-01-08T04:21:53;0.50;;;0.35;;
44981;SDS011;30716;41.740;-70.400;2023-01-08T04:24:20;0.75;;;0.50;;
44981;SDS011;30716;41.740;-70.400;2023-01-08T04:26:46;1.35;;;0.50;;
44981;SDS011;30716;41.740;-70.400;2023-01-08T04:29:12;0.98;;;0.60;;
44981;SDS011;30716;41.740;-70.400;2023-01-08T04:31:39;1.30;;;0.50;;
44981;SDS011;30716;41.740;-70.400;2023-01-08T04:37:27;1.25;;;0.43;;
44981;SDS011;30716;41.740;-70.400;2023-01-08T04:39:54;1.25;;;0.57;;
44981;SDS011;30716;41.740;-70.400;2023-01-08T04:42:20;0.60;;;0.50;;
44981;SDS011;30716;41.740;-70.400;2023-01-08T04:44:46;1.00;;;0.50;;
44981;SDS011;30716;41.740;-70.400;2023-01-08T04:47:12;1.65;;;0.40;;
44981;SDS011;30716;41.740;-70.400;2023-01-08T04:53:01;0.73;;;0.60;;
44981;SDS011;30716;41.740;-70.400;2023-01-08T04:55:28;1.30;;;0.80;;
44981;SDS011;30716;41.740;-70.400;2023-01-08T04:57:54;3.38;;;1.00;;
44981;SDS011;30716;41.740;-70.400;2023-01-08T05:00:20;0.88;;;0.55;;
44981;SDS011;30716;41.740;-70.400;2023-01-08T05:02:47;2.35;;;0.50;;
44981;SDS011;30716;41.740;-70.400;2023-01-08T05:05:13;1.08;;;0.68;;
44981;SDS011;30716;41.740;-70.400;2023-01-08T05:07:39;1.60;;;0.40;;
44981;SDS011;30716;41.740;-70.400;2023-01-08T05:10:06;1.27;;;0.50;;
44981;SDS011;30716;41.740;-70.400;2023-01-08T05:12:32;1.10;;;0.40;;
44981;SDS011;30716;41.740;-70.400;2023-01-08T05:14:59;2.10;;;0.80;;
44981;SDS011;30716;41.740;-70.400;2023-01-08T05:17:25;1.38;;;0.55;;
44981;SDS011;30716;41.740;-70.400;2023-01-08T05:19:51;1.35;;;0.60;;
44981;SDS011;30716;41.740;-70.400;2023-01-08T05:22:17;2.00;;;0.70;;
44981;SDS011;30716;41.740;-70.400;2023-01-08T05:24:44;2.03;;;0.80;;
44981;SDS011;30716;41.740;-70.400;2023-01-08T05:27:10;1.13;;;0.60;;
44981;SDS011;30716;41.740;-70.400;2023-01-08T05:29:36;2.03;;;0.77;;
44981;SDS011;30716;41.740;-70.400;2023-01-08T05:32:02;1.00;;;0.57;;
44981;SDS011;30716;41.740;-70.400;2023-01-08T05:34:30;2.88;;;0.93;;
44981;SDS011;30716;41.740;-70.400;2023-01-08T05:36:57;2.42;;;0.75;;
44981;SDS011;30716;41.740;-70.400;2023-01-08T05:39:23;1.83;;;0.77;;
44981;SDS011;30716;41.740;-70.400;2023-01-08T05:41:49;2.05;;;0.90;;
44981;SDS011;30716;41.740;-70.400;2023-01-08T05:44:15;3.78;;;1.25;;
44981;SDS011;30716;41.740;-70.400;2023-01-08T05:46:41;2.15;;;0.68;;
44981;SDS011;30716;41.740;-70.400;2023-01-08T05:49:08;1.30;;;0.70;;
44981;SDS011;30716;41.740;-70.400;2023-01-08T05:51:34;3.08;;;0.80;;
44981;SDS011;30716;41.740;-70.400;2023-01-08T05:54:00;3.15;;;0.90;;
44981;SDS011;30716;41.740;-70.400;2023-01-08T05:56:27;3.38;;;1.27;;
44981;SDS011;30716;41.740;-70.400;2023-01-08T05:58:53;2.92;;;0.70;;
44981;SDS011;30716;41.740;-70.400;2023-01-08T06:01:20;3.38;;;1.00;;
44981;SDS011;30716;41.740;-70.400;2023-01-08T06:03:46;2.90;;;1.27;;
44981;SDS011;30716;41.740;-70.400;2023-01-08T06:06:13;1.52;;;0.93;;
44981;SDS011;30716;41.740;-70.400;2023-01-08T06:08:40;3.55;;;1.17;;
44981;SDS011;30716;41.740;-70.400;2023-01-08T06:11:07;2.78;;;0.82;;
44981;SDS011;30716;41.740;-70.400;2023-01-08T06:13:35;4.38;;;1.15;;
44981;SDS011;30716;41.740;-70.400;2023-01-08T06:16:04;2.58;;;1.20;;
44981;SDS011;30716;41.740;-70.400;2023-01-08T06:18:31;2.22;;;0.82;;
44981;SDS011;30716;41.740;-70.400;2023-01-08T06:20:57;2.55;;;1.00;;
44981;SDS011;30716;41.740;-70.400;2023-01-08T06:23:24;2.15;;;0.90;;
44981;SDS011;30716;41.740;-70.400;2023-01-08T06:25:51;1.30;;;0.65;;
44981;SDS011;30716;41.740;-70.400;2023-01-08T06:28:18;1.58;;;0.73;;
44981;SDS011;30716;41.740;-70.400;2023-01-08T06:30:44;2.40;;;0.82;;
44981;SDS011;30716;41.740;-70.400;2023-01-08T06:33:11;4.63;;;1.00;;
44981;SDS011;30716;41.740;-70.400;2023-01-08T06:35:37;2.42;;;0.73;;
44981;SDS011;30716;41.740;-70.400;2023-01-08T06:38:03;2.63;;;0.80;;
44981;SDS011;30716;41.740;-70.400;2023-01-08T06:40:30;3.08;;;0.68;;
44981;SDS011;30716;41.740;-70.400;2023-01-08T06:43:00;2.50;;;1.08;;
44981;SDS011;30716;41.740;-70.400;2023-01-08T06:45:29;1.83;;;0.75;;
44981;SDS011;30716;41.740;-70.400;2023-01-08T06:48:00;2.47;;;0.75;;
44981;SDS011;30716;41.740;-70.400;2023-01-08T06:50:27;1.92;;;0.80;;
44981;SDS011;30716;41.740;-70.400;2023-01-08T06:52:54;1.67;;;0.93;;
44981;SDS011;30716;41.740;-70.400;2023-01-08T06:55:21;2.92;;;0.85;;
44981;SDS011;30716;41.740;-70.400;2023-01-08T06:57:57;1.08;;;0.73;;
44981;SDS011;30716;41.740;-70.400;2023-01-08T07:00:24;3.20;;;0.90;;
44981;SDS011;30716;41.740;-70.400;2023-01-08T07:02:53;2.75;;;0.80;;
44981;SDS011;30716;41.740;-70.400;2023-01-08T07:05:32;2.03;;;0.90;;
44981;SDS011;30716;41.740;-70.400;2023-01-08T07:07:58;2.13;;;0.82;;
44981;SDS011;30716;41.740;-70.400;2023-01-08T07:10:24;2.05;;;0.93;;
44981;SDS011;30716;41.740;-70.400;2023-01-08T07:12:51;1.73;;;0.85;;
44981;SDS011;30716;41.740;-70.400;2023-01-08T07:15:26;2.15;;;0.60;;
44981;SDS011;30716;41.740;-70.400;2023-01-08T07:17:52;1.73;;;0.90;;
44981;SDS011;30716;41.740;-70.400;2023-01-08T07:20:18;2.85;;;0.93;;
44981;SDS011;30716;41.740;-70.400;2023-01-08T07:22:44;1.90;;;0.90;;
44981;SDS011;30716;41.740;-70.400;2023-01-08T07:25:11;1.85;;;0.65;;
44981;SDS011;30716;41.740;-70.400;2023-01-08T07:27:37;2.35;;;0.93;;
44981;SDS011;30716;41.740;-70.400;2023-01-08T07:30:03;2.63;;;0.80;;
44981;SDS011;30716;41.740;-70.400;2023-01-08T07:32:30;3.72;;;1.08;;
44981;SDS011;30716;41.740;-70.400;2023-01-08T07:34:56;2.78;;;0.98;;
44981;SDS011;30716;41.740;-70.400;2023-01-08T07:37:23;2.08;;;0.75;;
44981;SDS011;30716;41.740;-70.400;2023-01-08T07:39:50;2.80;;;1.00;;
44981;SDS011;30716;41.740;-70.400;2023-01-08T07:42:17;2.60;;;0.80;;
44981;SDS011;30716;41.740;-70.400;2023-01-08T07:44:44;1.92;;;0.80;;
44981;SDS011;30716;41.740;-70.400;2023-01-08T07:47:10;3.22;;;0.95;;
44981;SDS011;30716;41.740;-70.400;2023-01-08T07:49:37;4.18;;;1.10;;
44981;SDS011;30716;41.740;-70.400;2023-01-08T07:52:03;2.45;;;0.90;;
44981;SDS011;30716;41.740;-70.400;2023-01-08T07:54:29;1.80;;;0.90;;
44981;SDS011;30716;41.740;-70.400;2023-01-08T07:56:55;1.95;;;0.73;;
44981;SDS011;30716;41.740;-70.400;2023-01-08T07:59:21;2.58;;;0.88;;
44981;SDS011;30716;41.740;-70.400;2023-01-08T08:01:48;1.90;;;0.95;;
44981;SDS011;30716;41.740;-70.400;2023-01-08T08:04:14;2.63;;;0.85;;
44981;SDS011;30716;41.740;-70.400;2023-01-08T08:06:40;4.80;;;1.40;;
44981;SDS011;30716;41.740;-70.400;2023-01-08T08:09:07;2.10;;;0.77;;
44981;SDS011;30716;41.740;-70.400;2023-01-08T08:11:33;2.30;;;0.80;;
44981;SDS011;30716;41.740;-70.400;2023-01-08T08:14:00;2.75;;;0.95;;
44981;SDS011;30716;41.740;-70.400;2023-01-08T08:16:26;2.67;;;0.90;;
44981;SDS011;30716;41.740;-70.400;2023-01-08T08:18:52;3.17;;;1.05;;
44981;SDS011;30716;41.740;-70.400;2023-01-08T08:21:18;2.20;;;0.95;;
44981;SDS011;30716;41.740;-70.400;2023-01-08T08:23:44;1.95;;;0.82;;
44981;SDS011;30716;41.740;-70.400;2023-01-08T08:26:11;2.08;;;0.98;;
44981;SDS011;30716;41.740;-70.400;2023-01-08T08:28:37;2.58;;;0.93;;
44981;SDS011;30716;41.740;-70.400;2023-01-08T08:31:03;2.35;;;0.80;;
44981;SDS011;30716;41.740;-70.400;2023-01-08T08:33:29;2.53;;;0.90;;
44981;SDS011;30716;41.740;-70.400;2023-01-08T08:35:56;2.92;;;0.80;;
44981;SDS011;30716;41.740;-70.400;2023-01-08T08:38:22;2.42;;;0.73;;
44981;SDS011;30716;41.740;-70.400;2023-01-08T08:40:50;1.83;;;0.65;;
44981;SDS011;30716;41.740;-70.400;2023-01-08T08:43:17;3.95;;;1.10;;
44981;SDS011;30716;41.740;-70.400;2023-01-08T08:45:43;2.65;;;0.98;;
44981;SDS011;30716;41.740;-70.400;2023-01-08T08:48:09;2.72;;;0.95;;
44981;SDS011;30716;41.740;-70.400;2023-01-08T08:50:36;1.67;;;0.70;;
44981;SDS011;30716;41.740;-70.400;2023-01-08T08:53:04;3.53;;;1.20;;
44981;SDS011;30716;41.740;-70.400;2023-01-08T08:55:31;2.33;;;0.73;;
44981;SDS011;30716;41.740;-70.400;2023-01-08T08:58:02;2.33;;;0.70;;
44981;SDS011;30716;41.740;-70.400;2023-01-08T09:00:35;4.78;;;1.00;;
44981;SDS011;30716;41.740;-70.400;2023-01-08T09:03:02;2.83;;;1.10;;
44981;SDS011;30716;41.740;-70.400;2023-01-08T09:05:29;3.55;;;1.30;;
44981;SDS011;30716;41.740;-70.400;2023-01-08T09:07:55;3.50;;;1.00;;
44981;SDS011;30716;41.740;-70.400;2023-01-08T09:10:21;3.85;;;1.00;;
44981;SDS011;30716;41.740;-70.400;2023-01-08T09:12:48;3.55;;;1.13;;
44981;SDS011;30716;41.740;-70.400;2023-01-08T09:15:14;1.63;;;0.85;;
44981;SDS011;30716;41.740;-70.400;2023-01-08T09:17:41;3.47;;;1.30;;
44981;SDS011;30716;41.740;-70.400;2023-01-08T09:20:07;1.95;;;0.60;;
44981;SDS011;30716;41.740;-70.400;2023-01-08T09:22:34;2.30;;;0.75;;
44981;SDS011;30716;41.740;-70.400;2023-01-08T09:27:31;1.77;;;0.82;;
44981;SDS011;30716;41.740;-70.400;2023-01-08T09:29:58;2.05;;;1.00;;
44981;SDS011;30716;41.740;-70.400;2023-01-08T09:32:24;2.88;;;1.10;;
44981;SDS011;30716;41.740;-70.400;2023-01-08T09:34:50;1.98;;;0.80;;
44981;SDS011;30716;41.740;-70.400;2023-01-08T09:37:16;3.10;;;1.17;;
44981;SDS011;30716;41.740;-70.400;2023-01-08T09:39:43;2.25;;;0.88;;
44981;SDS011;30716;41.740;-70.400;2023-01-08T09:42:09;2.35;;;0.75;;
44981;SDS011;30716;41.740;-70.400;2023-01-08T09:44:38;1.80;;;0.68;;
44981;SDS011;30716;41.740;-70.400;2023-01-08T09:47:49;2.22;;;1.00;;
44981;SDS011;30716;41.740;-70.400;2023-01-08T09:50:03;2.80;;;1.00;;
44981;SDS011;30716;41.740;-70.400;2023-01-08T09:52:35;2.20;;;0.85;;
44981;SDS011;30716;41.740;-70.400;2023-01-08T09:55:08;3.17;;;1.10;;
44981;SDS011;30716;41.740;-70.400;2023-01-08T09:57:38;3.40;;;1.38;;
44981;SDS011;30716;41.740;-70.400;2023-01-08T10:00:10;3.17;;;0.93;;
44981;SDS011;30716;41.740;-70.400;2023-01-08T10:02:38;3.42;;;0.82;;
44981;SDS011;30716;41.740;-70.400;2023-01-08T10:05:10;2.10;;;0.80;;
44981;SDS011;30716;41.740;-70.400;2023-01-08T10:07:38;1.92;;;0.90;;
44981;SDS011;30716;41.740;-70.400;2023-01-08T10:10:04;2.83;;;0.80;;
44981;SDS011;30716;41.740;-70.400;2023-01-08T10:12:40;1.40;;;0.65;;
44981;SDS011;30716;41.740;-70.400;2023-01-08T10:15:07;2.75;;;0.90;;
44981;SDS011;30716;41.740;-70.400;2023-01-08T10:20:18;2.78;;;0.82;;
44981;SDS011;30716;41.740;-70.400;2023-01-08T10:22:46;0.98;;;0.50;;
44981;SDS011;30716;41.740;-70.400;2023-01-08T10:25:14;2.47;;;1.17;;
44981;SDS011;30716;41.740;-70.400;2023-01-08T10:33:16;2.00;;;1.10;;
44981;SDS011;30716;41.740;-70.400;2023-01-08T10:35:54;1.95;;;0.60;;
44981;SDS011;30716;41.740;-70.400;2023-01-08T10:38:31;1.30;;;0.52;;
44981;SDS011;30716;41.740;-70.400;2023-01-08T10:41:05;1.52;;;0.68;;
44981;SDS011;30716;41.740;-70.400;2023-01-08T10:43:36;2.67;;;0.90;;
44981;SDS011;30716;41.740;-70.400;2023-01-08T10:46:11;2.28;;;0.82;;
44981;SDS011;30716;41.740;-70.400;2023-01-08T10:48:53;1.63;;;0.70;;
44981;SDS011;30716;41.740;-70.400;2023-01-08T10:51:24;1.83;;;0.50;;
44981;SDS011;30716;41.740;-70.400;2023-01-08T10:53:52;1.33;;;0.70;;
44981;SDS011;30716;41.740;-70.400;2023-01-08T10:58:50;4.22;;;1.27;;
44981;SDS011;30716;41.740;-70.400;2023-01-08T11:01:17;2.65;;;0.95;;
44981;SDS011;30716;41.740;-70.400;2023-01-08T11:03:50;3.25;;;0.88;;
44981;SDS011;30716;41.740;-70.400;2023-01-08T11:06:19;1.92;;;0.70;;
44981;SDS011;30716;41.740;-70.400;2023-01-08T11:08:48;1.35;;;0.50;;
44981;SDS011;30716;41.740;-70.400;2023-01-08T11:11:16;2.42;;;0.85;;
44981;SDS011;30716;41.740;-70.400;2023-01-08T11:13:54;2.08;;;0.60;;
44981;SDS011;30716;41.740;-70.400;2023-01-08T11:16:32;1.73;;;0.77;;
44981;SDS011;30716;41.740;-70.400;2023-01-08T11:19:03;4.00;;;0.60;;
44981;SDS011;30716;41.740;-70.400;2023-01-08T11:21:39;2.45;;;0.50;;
44981;SDS011;30716;41.740;-70.400;2023-01-08T11:24:47;2.88;;;1.13;;
44981;SDS011;30716;41.740;-70.400;2023-01-08T11:27:11;2.58;;;0.70;;
44981;SDS011;30716;41.740;-70.400;2023-01-08T11:32:40;2.10;;;0.55;;
44981;SDS011;30716;41.740;-70.400;2023-01-08T11:37:54;1.42;;;0.50;;
44981;SDS011;30716;41.740;-70.400;2023-01-08T11:48:30;0.83;;;0.50;;
44981;SDS011;30716;41.740;-70.400;2023-01-08T11:54:02;2.22;;;0.90;;
44981;SDS011;30716;41.740;-70.400;2023-01-08T11:56:37;1.88;;;0.70;;
44981;SDS011;30716;41.740;-70.400;2023-01-08T12:08:11;1.50;;;0.60;;
44981;SDS011;30716;41.740;-70.400;2023-01-08T12:27:40;1.55;;;0.65;;
44981;SDS011;30716;41.740;-70.400;2023-01-08T12:30:41;2.45;;;0.77;;
44981;SDS011;30716;41.740;-70.400;2023-01-08T12:35:57;1.05;;;0.50;;
44981;SDS011;30716;41.740;-70.400;2023-01-08T12:38:28;2.10;;;0.55;;
44981;SDS011;30716;41.740;-70.400;2023-01-08T12:41:02;1.30;;;0.50;;
44981;SDS011;30716;41.740;-70.400;2023-01-08T12:44:15;3.13;;;0.70;;
44981;SDS011;30716;41.740;-70.400;2023-01-08T12:46:27;1.73;;;0.60;;
44981;SDS011;30716;41.740;-70.400;2023-01-08T12:48:59;1.98;;;0.75;;
44981;SDS011;30716;41.740;-70.400;2023-01-08T13:00:11;2.85;;;0.73;;
44981;SDS011;30716;41.740;-70.400;2023-01-08T13:02:59;1.13;;;0.50;;
44981;SDS011;30716;41.740;-70.400;2023-01-08T13:05:30;3.25;;;0.90;;
44981;SDS011;30716;41.740;-70.400;2023-01-08T13:08:17;2.72;;;1.00;;
44981;SDS011;30716;41.740;-70.400;2023-01-08T13:10:50;2.20;;;0.70;;
44981;SDS011;30716;41.740;-70.400;2023-01-08T13:13:35;3.92;;;0.82;;
44981;SDS011;30716;41.740;-70.400;2023-01-08T13:18:38;1.30;;;0.60;;
44981;SDS011;30716;41.740;-70.400;2023-01-08T13:21:06;2.17;;;0.60;;
44981;SDS011;30716;41.740;-70.400;2023-01-08T13:23:38;2.35;;;0.63;;
44981;SDS011;30716;41.740;-70.400;2023-01-08T13:26:05;3.17;;;0.63;;
44981;SDS011;30716;41.740;-70.400;2023-01-08T13:28:44;1.95;;;0.65;;
44981;SDS011;30716;41.740;-70.400;2023-01-08T13:33:46;2.30;;;0.80;;
44981;SDS011;30716;41.740;-70.400;2023-01-08T13:44:50;0.88;;;0.30;;
44981;SDS011;30716;41.740;-70.400;2023-01-08T13:47:25;1.45;;;0.60;;
44981;SDS011;30716;41.740;-70.400;2023-01-08T13:49:56;2.05;;;0.52;;
44981;SDS011;30716;41.740;-70.400;2023-01-08T13:52:44;1.95;;;0.50;;
44981;SDS011;30716;41.740;-70.400;2023-01-08T13:57:43;1.67;;;0.40;;
44981;SDS011;30716;41.740;-70.400;2023-01-08T14:00:22;1.10;;;0.50;;
44981;SDS011;30716;41.740;-70.400;2023-01-08T14:02:52;1.75;;;1.10;;
44981;SDS011;30716;41.740;-70.400;2023-01-08T14:07:50;1.17;;;0.50;;
44981;SDS011;30716;41.740;-70.400;2023-01-08T14:10:17;2.00;;;0.63;;
44981;SDS011;30716;41.740;-70.400;2023-01-08T14:12:43;2.53;;;0.68;;
44981;SDS011;30716;41.740;-70.400;2023-01-08T14:15:16;1.40;;;0.47;;
44981;SDS011;30716;41.740;-70.400;2023-01-08T14:17:44;1.00;;;0.40;;
44981;SDS011;30716;41.740;-70.400;2023-01-08T14:20:10;1.02;;;0.57;;
44981;SDS011;30716;41.740;-70.400;2023-01-08T14:22:37;1.27;;;1.10;;
44981;SDS011;30716;41.740;-70.400;2023-01-08T14:25:06;1.08;;;0.57;;
44981;SDS011;30716;41.740;-70.400;2023-01-08T14:27:33;2.00;;;0.70;;
44981;SDS011;30716;41.740;-70.400;2023-01-08T14:29:59;2.55;;;0.60;;
44981;SDS011;30716;41.740;-70.400;2023-01-08T14:32:26;1.52;;;0.47;;
44981;SDS011;30716;41.740;-70.400;2023-01-08T14:34:55;2.28;;;0.70;;
44981;SDS011;30716;41.740;-70.400;2023-01-08T14:37:23;1.48;;;0.55;;
44981;SDS011;30716;41.740;-70.400;2023-01-08T14:39:49;1.38;;;0.63;;
44981;SDS011;30716;41.740;-70.400;2023-01-08T14:42:21;1.35;;;0.50;;
44981;SDS011;30716;41.740;-70.400;2023-01-08T14:48:00;2.13;;;0.70;;
44981;SDS011;30716;41.740;-70.400;2023-01-08T14:50:40;0.85;;;0.52;;
44981;SDS011;30716;41.740;-70.400;2023-01-08T14:53:11;1.45;;;0.50;;
44981;SDS011;30716;41.740;-70.400;2023-01-08T14:55:43;1.35;;;0.50;;
44981;SDS011;30716;41.740;-70.400;2023-01-08T14:58:21;2.00;;;0.50;;
44981;SDS011;30716;41.740;-70.400;2023-01-08T15:00:53;2.65;;;0.70;;
44981;SDS011;30716;41.740;-70.400;2023-01-08T15:03:42;1.60;;;0.55;;
44981;SDS011;30716;41.740;-70.400;2023-01-08T15:06:11;2.47;;;0.63;;
44981;SDS011;30716;41.740;-70.400;2023-01-08T15:08:47;1.95;;;0.52;;
44981;SDS011;30716;41.740;-70.400;2023-01-08T15:11:21;1.67;;;0.60;;
44981;SDS011;30716;41.740;-70.400;2023-01-08T15:13:49;1.08;;;0.45;;
44981;SDS011;30716;41.740;-70.400;2023-01-08T15:16:20;1.15;;;0.57;;
44981;SDS011;30716;41.740;-70.400;2023-01-08T15:19:06;0.95;;;0.45;;
44981;SDS011;30716;41.740;-70.400;2023-01-08T15:21:47;0.68;;;0.30;;
44981;SDS011;30716;41.740;-70.400;2023-01-08T15:24:34;0.90;;;0.52;;
44981;SDS011;30716;41.740;-70.400;2023-01-08T15:27:05;1.02;;;0.40;;
44981;SDS011;30716;41.740;-70.400;2023-01-08T15:29:50;0.70;;;0.40;;
44981;SDS011;30716;41.740;-70.400;2023-01-08T15:32:26;1.50;;;0.52;;
44981;SDS011;30716;41.740;-70.400;2023-01-08T15:34:59;3.05;;;0.90;;
44981;SDS011;30716;41.740;-70.400;2023-01-08T15:37:26;0.98;;;0.30;;
44981;SDS011;30716;41.740;-70.400;2023-01-08T15:39:52;0.80;;;0.40;;
44981;SDS011;30716;41.740;-70.400;2023-01-08T15:42:20;1.10;;;0.40;;
44981;SDS011;30716;41.740;-70.400;2023-01-08T15:45:14;1.08;;;0.43;;
44981;SDS011;30716;41.740;-70.400;2023-01-08T15:47:42;1.33;;;0.43;;
44981;SDS011;30716;41.740;-70.400;2023-01-08T15:50:08;1.58;;;0.50;;
44981;SDS011;30716;41.740;-70.400;2023-01-08T15:52:36;1.05;;;0.40;;
44981;SDS011;30716;41.740;-70.400;2023-01-08T15:55:04;1.52;;;0.38;;
44981;SDS011;30716;41.740;-70.400;2023-01-08T15:57:31;1.00;;;0.40;;
44981;SDS011;30716;41.740;-70.400;2023-01-08T15:59:58;2.45;;;0.52;;
44981;SDS011;30716;41.740;-70.400;2023-01-08T16:02:24;1.85;;;0.55;;
44981;SDS011;30716;41.740;-70.400;2023-01-08T16:04:51;1.50;;;0.70;;
44981;SDS011;30716;41.740;-70.400;2023-01-08T16:07:18;1.05;;;0.50;;
44981;SDS011;30716;41.740;-70.400;2023-01-08T16:09:44;0.88;;;0.45;;
44981;SDS011;30716;41.740;-70.400;2023-01-08T16:12:10;0.95;;;0.40;;
44981;SDS011;30716;41.740;-70.400;2023-01-08T16:14:37;0.98;;;0.43;;
44981;SDS011;30716;41.740;-70.400;2023-01-08T16:17:03;1.25;;;0.43;;
44981;SDS011;30716;41.740;-70.400;2023-01-08T16:19:31;1.65;;;0.40;;
44981;SDS011;30716;41.740;-70.400;2023-01-08T16:21:58;2.00;;;0.70;;
44981;SDS011;30716;41.740;-70.400;2023-01-08T16:24:25;1.55;;;0.60;;